createdAt,value
2022-11-17T00:01:21.831Z,100.00
2022-11-17T00:16:23.319Z,100.00
2022-11-17T00:31:44.327Z,100.00
2022-11-17T00:46:45.899Z,100.00
2022-11-17T01:01:47.531Z,100.00
2022-11-17T01:16:49.509Z,100.00
2022-11-17T01:31:51.699Z,100.00
2022-11-17T01:46:59.684Z,100.00
2022-11-17T02:02:02.358Z,100.00
2022-11-17T02:17:11.586Z,100.00
2022-11-17T02:32:30.786Z,100.00
2022-11-17T02:47:34.030Z,100.00
2022-11-17T03:02:53.932Z,100.00
2022-11-17T03:18:10.705Z,100.00
2022-11-17T03:33:15.355Z,100.00
2022-11-17T03:48:28.875Z,100.00
2022-11-17T04:03:32.321Z,100.00
2022-11-17T04:18:34.057Z,100.00
2022-11-17T04:33:36.869Z,100.00
2022-11-17T04:48:38.472Z,100.00
2022-11-17T05:03:47.565Z,100.00
2022-11-17T05:18:49.021Z,100.00
2022-11-17T05:33:50.823Z,100.00
2022-11-17T05:48:52.577Z,100.00
2022-11-17T06:03:56.284Z,100.00
2022-11-17T06:19:09.733Z,100.00
2022-11-17T06:34:11.451Z,100.00
2022-11-17T06:49:12.933Z,100.00
2022-11-17T07:04:14.436Z,100.00
2022-11-17T07:19:15.933Z,100.00
2022-11-17T07:34:17.462Z,100.00
2022-11-17T07:49:18.976Z,91.12
2022-11-17T08:04:20.529Z,82.78
2022-11-17T08:19:22.085Z,82.08
2022-11-17T08:34:23.591Z,77.48
2022-11-17T08:49:25.183Z,61.73
2022-11-17T09:04:26.846Z,53.66
2022-11-17T09:19:28.383Z,52.75
2022-11-17T09:34:29.937Z,55.64
2022-11-17T09:49:58.629Z,64.96
2022-11-17T10:05:01.000Z,75.50
2022-11-17T10:20:13.727Z,80.94
2022-11-17T10:35:20.642Z,66.67
2022-11-17T10:50:23.688Z,68.46
2022-11-17T11:05:25.321Z,67.26
2022-11-17T11:20:34.008Z,77.11
2022-11-17T11:36:04.605Z,73.14
2022-11-17T11:51:11.605Z,72.20
2022-11-17T12:06:36.943Z,71.21
2022-11-17T12:21:38.588Z,71.27
2022-11-17T12:36:40.108Z,70.95
2022-11-17T12:51:52.375Z,73.16
2022-11-17T13:07:05.361Z,70.72
2022-11-17T13:22:16.495Z,72.47
2022-11-17T13:37:22.481Z,72.05
2022-11-17T13:52:37.924Z,77.13
2022-11-17T14:07:40.843Z,77.61
2022-11-17T14:22:58.841Z,76.93
2022-11-17T14:38:00.845Z,77.29
2022-11-17T14:53:02.371Z,74.10
2022-11-17T15:08:03.980Z,75.12
2022-11-17T15:23:05.512Z,88.85
2022-11-17T15:38:07.002Z,100.00
2022-11-17T15:53:08.473Z,100.00
2022-11-17T16:08:09.951Z,100.00
2022-11-17T16:23:11.600Z,100.00
2022-11-17T16:38:14.086Z,100.00
2022-11-17T16:53:15.559Z,100.00
2022-11-17T17:08:17.070Z,100.00
2022-11-17T17:23:18.910Z,100.00
2022-11-17T17:38:20.487Z,100.00
2022-11-17T17:53:21.988Z,100.00
2022-11-17T18:08:23.686Z,100.00
2022-11-17T18:23:25.232Z,100.00
2022-11-17T18:38:26.705Z,100.00
2022-11-17T18:53:28.776Z,100.00
2022-11-17T19:08:30.979Z,100.00
2022-11-17T19:23:33.705Z,100.00
2022-11-17T19:38:37.951Z,100.00
2022-11-17T19:53:39.632Z,100.00
2022-11-17T20:08:41.406Z,100.00
2022-11-17T20:23:43.657Z,100.00
2022-11-17T20:38:45.683Z,100.00
2022-11-17T20:53:47.179Z,100.00
2022-11-17T21:08:48.696Z,100.00
2022-11-17T21:23:53.531Z,100.00
2022-11-17T21:38:55.336Z,100.00
2022-11-17T21:53:57.753Z,100.00
2022-11-17T22:16:13.368Z,100.00
2022-11-17T22:31:14.917Z,100.00
2022-11-17T22:46:16.474Z,100.00
2022-11-17T23:01:18.124Z,100.00
2022-11-17T23:16:19.728Z,100.00
2022-11-17T23:31:21.277Z,100.00
2022-11-17T23:46:24.039Z,100.00
